Country
Station

 

Weather  for  Seoul/Kimp'O International Airport  -  Korea (Republic of)    Korea (Republic of)

  
28 °C (82 °F)
    
 
 

Current METAR for Seoul/Kimp'O International Airport is :

RKSS 191700Z 10008KT 080V140 9999 FEW030 SCT100 BKN180 28/22 Q1004 NOSIG

 

This is a report for Seoul/Kimp'O International Airport - Korea (Republic of).
 
The report was made 21 minutes ago, at 17:00 UTC .
The wind was blowing at a speed of 4.1 meters per second (9.2 miles per hour) from east (100°), varying between east (080°) and southeast (140°).
 
The temperature was 28 °C (82 °F), with a dew-point at 22 °C (72 °F).
The temperature felt like 30 °C (86 °F).
 
The atmospheric pressure was 1004 hPa (29.65 inHg).
The relative humidity was 69.9%.
 
There were a few clouds at a height of 914 meters (3000 feet), scattered clouds at a height of 3048 meters (10000 feet) and broken clouds at a height of 5486 meters (18000 feet).
 
The overall visibility was greater than 10 kilometers (6.2 miles).
 

 
 
 
 

Country :   A   B   C   D   E   F   G   H   I   J   K   L   M   N   O   P   Q   R   S   T   U   V   W   Y   Z

 

Site Info  |  Disclaimer  |  Credits  |  Privacy
Contact us  |  Add to favorites
© 2013-2019 METARs - All rights reserved